sensor_id;sensor_type;location;lat;lon;timestamp;P1;durP1;ratioP1;P2;durP2;ratioP2
44850;SDS011;30583;48.714;9.386;2022-12-16T00:01:45;36.15;;;21.13;;
44850;SDS011;30583;48.714;9.386;2022-12-16T00:04:11;37.88;;;20.55;;
44850;SDS011;30583;48.714;9.386;2022-12-16T00:06:36;37.05;;;21.80;;
44850;SDS011;30583;48.714;9.386;2022-12-16T00:09:02;37.58;;;21.13;;
44850;SDS011;30583;48.714;9.386;2022-12-16T00:11:27;36.28;;;22.20;;
44850;SDS011;30583;48.714;9.386;2022-12-16T00:13:55;40.28;;;21.27;;
44850;SDS011;30583;48.714;9.386;2022-12-16T00:16:21;37.63;;;22.35;;
44850;SDS011;30583;48.714;9.386;2022-12-16T00:18:47;37.50;;;21.65;;
44850;SDS011;30583;48.714;9.386;2022-12-16T00:21:13;38.63;;;22.98;;
44850;SDS011;30583;48.714;9.386;2022-12-16T00:23:42;41.70;;;23.30;;
44850;SDS011;30583;48.714;9.386;2022-12-16T00:26:08;41.30;;;23.85;;
44850;SDS011;30583;48.714;9.386;2022-12-16T00:28:35;43.15;;;23.73;;
44850;SDS011;30583;48.714;9.386;2022-12-16T00:31:01;40.67;;;22.60;;
44850;SDS011;30583;48.714;9.386;2022-12-16T00:33:26;43.25;;;23.92;;
44850;SDS011;30583;48.714;9.386;2022-12-16T00:35:53;44.38;;;24.17;;
44850;SDS011;30583;48.714;9.386;2022-12-16T00:38:19;42.85;;;23.67;;
44850;SDS011;30583;48.714;9.386;2022-12-16T00:40:46;42.90;;;23.25;;
44850;SDS011;30583;48.714;9.386;2022-12-16T00:43:11;41.83;;;24.13;;
44850;SDS011;30583;48.714;9.386;2022-12-16T00:45:37;45.00;;;25.13;;
44850;SDS011;30583;48.714;9.386;2022-12-16T00:48:03;43.47;;;24.10;;
44850;SDS011;30583;48.714;9.386;2022-12-16T00:50:29;45.45;;;25.35;;
44850;SDS011;30583;48.714;9.386;2022-12-16T00:52:55;48.88;;;25.77;;
44850;SDS011;30583;48.714;9.386;2022-12-16T00:55:21;49.58;;;26.05;;
44850;SDS011;30583;48.714;9.386;2022-12-16T00:57:47;43.75;;;24.30;;
44850;SDS011;30583;48.714;9.386;2022-12-16T01:00:13;48.22;;;26.40;;
44850;SDS011;30583;48.714;9.386;2022-12-16T01:02:44;44.55;;;25.38;;
44850;SDS011;30583;48.714;9.386;2022-12-16T01:05:12;47.50;;;23.75;;
44850;SDS011;30583;48.714;9.386;2022-12-16T01:07:39;43.45;;;24.95;;
44850;SDS011;30583;48.714;9.386;2022-12-16T01:10:05;40.30;;;23.98;;
44850;SDS011;30583;48.714;9.386;2022-12-16T01:12:33;44.55;;;25.23;;
44850;SDS011;30583;48.714;9.386;2022-12-16T01:14:59;45.10;;;24.67;;
44850;SDS011;30583;48.714;9.386;2022-12-16T01:17:25;46.42;;;24.58;;
44850;SDS011;30583;48.714;9.386;2022-12-16T01:19:51;45.35;;;25.15;;
44850;SDS011;30583;48.714;9.386;2022-12-16T01:22:17;47.60;;;25.17;;
44850;SDS011;30583;48.714;9.386;2022-12-16T01:24:44;44.10;;;23.63;;
44850;SDS011;30583;48.714;9.386;2022-12-16T01:27:10;43.00;;;23.05;;
44850;SDS011;30583;48.714;9.386;2022-12-16T01:29:35;40.50;;;22.92;;
44850;SDS011;30583;48.714;9.386;2022-12-16T01:32:01;46.25;;;23.98;;
44850;SDS011;30583;48.714;9.386;2022-12-16T01:34:26;44.05;;;25.10;;
44850;SDS011;30583;48.714;9.386;2022-12-16T01:36:52;50.70;;;25.83;;
44850;SDS011;30583;48.714;9.386;2022-12-16T01:39:18;55.40;;;26.42;;
44850;SDS011;30583;48.714;9.386;2022-12-16T01:41:43;48.67;;;25.13;;
44850;SDS011;30583;48.714;9.386;2022-12-16T01:44:16;46.38;;;24.83;;
44850;SDS011;30583;48.714;9.386;2022-12-16T01:47:18;44.95;;;24.30;;
44850;SDS011;30583;48.714;9.386;2022-12-16T01:52:11;41.80;;;24.15;;
44850;SDS011;30583;48.714;9.386;2022-12-16T01:54:47;47.22;;;25.15;;
44850;SDS011;30583;48.714;9.386;2022-12-16T01:57:20;43.55;;;24.42;;
44850;SDS011;30583;48.714;9.386;2022-12-16T01:59:51;45.20;;;24.48;;
44850;SDS011;30583;48.714;9.386;2022-12-16T02:02:19;46.38;;;25.60;;
44850;SDS011;30583;48.714;9.386;2022-12-16T02:04:46;44.85;;;25.85;;
44850;SDS011;30583;48.714;9.386;2022-12-16T02:07:31;44.92;;;23.90;;
44850;SDS011;30583;48.714;9.386;2022-12-16T02:09:57;47.85;;;26.08;;
44850;SDS011;30583;48.714;9.386;2022-12-16T02:17:40;41.33;;;23.05;;
44850;SDS011;30583;48.714;9.386;2022-12-16T02:20:36;43.13;;;22.52;;
44850;SDS011;30583;48.714;9.386;2022-12-16T02:23:21;36.50;;;21.45;;
44850;SDS011;30583;48.714;9.386;2022-12-16T02:26:08;36.63;;;22.80;;
44850;SDS011;30583;48.714;9.386;2022-12-16T02:37:11;37.70;;;22.27;;
44850;SDS011;30583;48.714;9.386;2022-12-16T02:39:58;35.85;;;20.50;;
44850;SDS011;30583;48.714;9.386;2022-12-16T02:42:29;36.42;;;20.70;;
44850;SDS011;30583;48.714;9.386;2022-12-16T02:45:06;38.70;;;21.85;;
44850;SDS011;30583;48.714;9.386;2022-12-16T02:47:53;39.20;;;22.23;;
44850;SDS011;30583;48.714;9.386;2022-12-16T02:52:52;37.00;;;21.25;;
44850;SDS011;30583;48.714;9.386;2022-12-16T02:55:19;39.72;;;21.75;;
44850;SDS011;30583;48.714;9.386;2022-12-16T02:58:01;38.78;;;21.75;;
44850;SDS011;30583;48.714;9.386;2022-12-16T03:00:39;42.40;;;22.95;;
44850;SDS011;30583;48.714;9.386;2022-12-16T03:03:19;38.25;;;21.95;;
44850;SDS011;30583;48.714;9.386;2022-12-16T03:05:51;41.40;;;21.98;;
44850;SDS011;30583;48.714;9.386;2022-12-16T03:08:21;35.30;;;21.35;;
44850;SDS011;30583;48.714;9.386;2022-12-16T03:10:56;41.40;;;22.70;;
44850;SDS011;30583;48.714;9.386;2022-12-16T03:13:25;42.90;;;25.40;;
44850;SDS011;30583;48.714;9.386;2022-12-16T03:15:53;42.72;;;23.52;;
44850;SDS011;30583;48.714;9.386;2022-12-16T03:18:22;37.28;;;22.65;;
44850;SDS011;30583;48.714;9.386;2022-12-16T03:20:53;43.42;;;25.10;;
44850;SDS011;30583;48.714;9.386;2022-12-16T03:23:32;42.63;;;23.10;;
44850;SDS011;30583;48.714;9.386;2022-12-16T03:26:22;39.00;;;22.98;;
44850;SDS011;30583;48.714;9.386;2022-12-16T03:37:04;36.05;;;20.42;;
44850;SDS011;30583;48.714;9.386;2022-12-16T03:39:32;40.13;;;22.08;;
44850;SDS011;30583;48.714;9.386;2022-12-16T03:42:01;41.00;;;23.63;;
44850;SDS011;30583;48.714;9.386;2022-12-16T03:44:27;42.28;;;23.15;;
44850;SDS011;30583;48.714;9.386;2022-12-16T03:46:53;40.17;;;23.90;;
44850;SDS011;30583;48.714;9.386;2022-12-16T03:49:20;46.55;;;24.50;;
44850;SDS011;30583;48.714;9.386;2022-12-16T03:51:46;48.80;;;26.85;;
44850;SDS011;30583;48.714;9.386;2022-12-16T03:54:12;50.75;;;28.67;;
44850;SDS011;30583;48.714;9.386;2022-12-16T03:56:37;48.45;;;25.92;;
44850;SDS011;30583;48.714;9.386;2022-12-16T03:59:03;49.25;;;27.23;;
44850;SDS011;30583;48.714;9.386;2022-12-16T04:01:29;49.78;;;27.05;;
44850;SDS011;30583;48.714;9.386;2022-12-16T04:03:54;46.88;;;25.35;;
44850;SDS011;30583;48.714;9.386;2022-12-16T04:06:20;51.03;;;28.23;;
44850;SDS011;30583;48.714;9.386;2022-12-16T04:08:45;60.58;;;31.80;;
44850;SDS011;30583;48.714;9.386;2022-12-16T04:11:12;58.90;;;28.55;;
44850;SDS011;30583;48.714;9.386;2022-12-16T04:13:58;51.50;;;26.25;;
44850;SDS011;30583;48.714;9.386;2022-12-16T04:19:33;48.53;;;24.65;;
44850;SDS011;30583;48.714;9.386;2022-12-16T04:22:27;46.22;;;26.20;;
44850;SDS011;30583;48.714;9.386;2022-12-16T04:25:18;58.47;;;28.13;;
44850;SDS011;30583;48.714;9.386;2022-12-16T04:27:56;51.38;;;24.65;;
44850;SDS011;30583;48.714;9.386;2022-12-16T04:30:22;51.58;;;26.23;;
44850;SDS011;30583;48.714;9.386;2022-12-16T04:35:34;50.17;;;27.83;;
44850;SDS011;30583;48.714;9.386;2022-12-16T04:38:18;59.60;;;26.73;;
44850;SDS011;30583;48.714;9.386;2022-12-16T04:41:02;50.25;;;26.13;;
44850;SDS011;30583;48.714;9.386;2022-12-16T04:43:47;44.42;;;24.33;;
44850;SDS011;30583;48.714;9.386;2022-12-16T04:46:31;45.35;;;24.75;;
44850;SDS011;30583;48.714;9.386;2022-12-16T04:49:15;42.35;;;24.85;;
44850;SDS011;30583;48.714;9.386;2022-12-16T04:51:59;41.13;;;21.05;;
44850;SDS011;30583;48.714;9.386;2022-12-16T04:54:43;37.20;;;21.83;;
44850;SDS011;30583;48.714;9.386;2022-12-16T04:57:27;50.55;;;24.25;;
44850;SDS011;30583;48.714;9.386;2022-12-16T05:00:12;48.10;;;24.20;;
44850;SDS011;30583;48.714;9.386;2022-12-16T05:02:56;42.35;;;21.58;;
44850;SDS011;30583;48.714;9.386;2022-12-16T05:05:40;41.70;;;21.70;;
44850;SDS011;30583;48.714;9.386;2022-12-16T05:08:24;48.80;;;25.05;;
44850;SDS011;30583;48.714;9.386;2022-12-16T05:11:08;49.55;;;24.05;;
44850;SDS011;30583;48.714;9.386;2022-12-16T05:13:53;44.70;;;23.75;;
44850;SDS011;30583;48.714;9.386;2022-12-16T05:16:37;54.72;;;26.10;;
44850;SDS011;30583;48.714;9.386;2022-12-16T05:19:21;44.17;;;22.25;;
44850;SDS011;30583;48.714;9.386;2022-12-16T05:22:05;45.53;;;23.77;;
44850;SDS011;30583;48.714;9.386;2022-12-16T05:24:49;46.28;;;24.65;;
44850;SDS011;30583;48.714;9.386;2022-12-16T05:27:33;41.38;;;21.85;;
44850;SDS011;30583;48.714;9.386;2022-12-16T05:30:17;49.33;;;27.20;;
44850;SDS011;30583;48.714;9.386;2022-12-16T05:33:01;50.63;;;25.83;;
44850;SDS011;30583;48.714;9.386;2022-12-16T05:35:45;54.75;;;24.80;;
44850;SDS011;30583;48.714;9.386;2022-12-16T05:38:29;46.60;;;24.55;;
44850;SDS011;30583;48.714;9.386;2022-12-16T05:41:13;34.40;;;20.75;;
44850;SDS011;30583;48.714;9.386;2022-12-16T05:43:57;43.17;;;23.88;;
44850;SDS011;30583;48.714;9.386;2022-12-16T05:46:41;56.13;;;27.50;;
44850;SDS011;30583;48.714;9.386;2022-12-16T05:49:25;55.47;;;29.10;;
44850;SDS011;30583;48.714;9.386;2022-12-16T05:52:10;45.70;;;23.23;;
44850;SDS011;30583;48.714;9.386;2022-12-16T05:54:54;44.53;;;22.75;;
44850;SDS011;30583;48.714;9.386;2022-12-16T05:57:38;45.10;;;21.73;;
44850;SDS011;30583;48.714;9.386;2022-12-16T06:00:22;35.10;;;19.88;;
44850;SDS011;30583;48.714;9.386;2022-12-16T06:03:06;33.35;;;20.17;;
44850;SDS011;30583;48.714;9.386;2022-12-16T06:05:50;38.08;;;21.02;;
44850;SDS011;30583;48.714;9.386;2022-12-16T06:08:34;37.70;;;21.70;;
44850;SDS011;30583;48.714;9.386;2022-12-16T06:11:18;39.10;;;21.83;;
44850;SDS011;30583;48.714;9.386;2022-12-16T06:14:02;37.60;;;20.50;;
44850;SDS011;30583;48.714;9.386;2022-12-16T06:16:46;39.90;;;21.45;;
44850;SDS011;30583;48.714;9.386;2022-12-16T06:19:31;37.50;;;21.05;;
44850;SDS011;30583;48.714;9.386;2022-12-16T06:22:15;34.33;;;19.80;;
44850;SDS011;30583;48.714;9.386;2022-12-16T06:24:59;37.42;;;21.15;;
44850;SDS011;30583;48.714;9.386;2022-12-16T06:27:47;40.58;;;22.20;;
44850;SDS011;30583;48.714;9.386;2022-12-16T06:30:33;38.08;;;19.73;;
44850;SDS011;30583;48.714;9.386;2022-12-16T06:33:17;38.60;;;20.38;;
44850;SDS011;30583;48.714;9.386;2022-12-16T06:36:01;33.67;;;18.73;;
44850;SDS011;30583;48.714;9.386;2022-12-16T06:38:45;36.55;;;19.73;;
44850;SDS011;30583;48.714;9.386;2022-12-16T06:41:29;35.53;;;18.48;;
44850;SDS011;30583;48.714;9.386;2022-12-16T06:44:13;36.17;;;20.48;;
44850;SDS011;30583;48.714;9.386;2022-12-16T06:46:57;33.38;;;18.77;;
44850;SDS011;30583;48.714;9.386;2022-12-16T06:49:41;27.85;;;16.52;;
44850;SDS011;30583;48.714;9.386;2022-12-16T06:52:25;31.58;;;18.10;;
44850;SDS011;30583;48.714;9.386;2022-12-16T06:55:09;29.50;;;17.42;;
44850;SDS011;30583;48.714;9.386;2022-12-16T06:57:57;29.58;;;16.75;;
44850;SDS011;30583;48.714;9.386;2022-12-16T07:00:41;7.90;;;4.63;;
44850;SDS011;30583;48.714;9.386;2022-12-16T07:03:25;28.88;;;17.10;;
44850;SDS011;30583;48.714;9.386;2022-12-16T07:06:09;26.70;;;16.08;;
44850;SDS011;30583;48.714;9.386;2022-12-16T07:08:54;28.08;;;16.77;;
44850;SDS011;30583;48.714;9.386;2022-12-16T07:11:38;27.83;;;16.80;;
44850;SDS011;30583;48.714;9.386;2022-12-16T07:14:22;28.90;;;16.88;;
44850;SDS011;30583;48.714;9.386;2022-12-16T07:17:06;31.53;;;17.57;;
44850;SDS011;30583;48.714;9.386;2022-12-16T07:19:50;36.05;;;16.98;;
44850;SDS011;30583;48.714;9.386;2022-12-16T07:22:34;29.15;;;16.52;;
44850;SDS011;30583;48.714;9.386;2022-12-16T07:25:18;28.67;;;16.25;;
44850;SDS011;30583;48.714;9.386;2022-12-16T07:28:02;28.17;;;15.18;;
44850;SDS011;30583;48.714;9.386;2022-12-16T07:30:46;28.27;;;14.77;;
44850;SDS011;30583;48.714;9.386;2022-12-16T07:33:30;28.23;;;15.73;;
44850;SDS011;30583;48.714;9.386;2022-12-16T07:36:15;25.33;;;14.93;;
44850;SDS011;30583;48.714;9.386;2022-12-16T07:38:59;23.85;;;13.68;;
44850;SDS011;30583;48.714;9.386;2022-12-16T07:41:43;24.00;;;13.35;;
44850;SDS011;30583;48.714;9.386;2022-12-16T07:44:27;27.00;;;14.02;;
44850;SDS011;30583;48.714;9.386;2022-12-16T07:47:11;34.67;;;15.60;;
44850;SDS011;30583;48.714;9.386;2022-12-16T07:49:55;27.52;;;14.23;;
44850;SDS011;30583;48.714;9.386;2022-12-16T07:52:39;31.10;;;17.70;;
44850;SDS011;30583;48.714;9.386;2022-12-16T07:55:23;29.58;;;14.68;;
44850;SDS011;30583;48.714;9.386;2022-12-16T07:58:08;26.05;;;13.27;;
44850;SDS011;30583;48.714;9.386;2022-12-16T08:00:53;23.77;;;13.27;;
44850;SDS011;30583;48.714;9.386;2022-12-16T08:03:37;22.88;;;12.13;;
44850;SDS011;30583;48.714;9.386;2022-12-16T08:06:21;24.17;;;13.05;;
44850;SDS011;30583;48.714;9.386;2022-12-16T08:09:05;22.50;;;12.85;;
44850;SDS011;30583;48.714;9.386;2022-12-16T08:11:49;23.13;;;12.95;;
44850;SDS011;30583;48.714;9.386;2022-12-16T08:14:33;26.02;;;13.93;;
44850;SDS011;30583;48.714;9.386;2022-12-16T08:17:17;21.73;;;12.02;;
44850;SDS011;30583;48.714;9.386;2022-12-16T08:20:02;23.85;;;12.63;;
44850;SDS011;30583;48.714;9.386;2022-12-16T08:22:46;22.17;;;12.73;;
44850;SDS011;30583;48.714;9.386;2022-12-16T08:25:30;20.92;;;12.05;;
44850;SDS011;30583;48.714;9.386;2022-12-16T08:28:24;24.95;;;14.35;;
44850;SDS011;30583;48.714;9.386;2022-12-16T08:31:09;27.88;;;15.82;;
44850;SDS011;30583;48.714;9.386;2022-12-16T08:33:53;25.77;;;13.93;;
44850;SDS011;30583;48.714;9.386;2022-12-16T08:36:37;21.17;;;12.73;;
44850;SDS011;30583;48.714;9.386;2022-12-16T08:39:21;22.00;;;13.32;;
44850;SDS011;30583;48.714;9.386;2022-12-16T08:42:05;22.92;;;13.57;;
44850;SDS011;30583;48.714;9.386;2022-12-16T08:44:49;30.77;;;14.95;;
44850;SDS011;30583;48.714;9.386;2022-12-16T08:47:33;24.55;;;13.80;;
44850;SDS011;30583;48.714;9.386;2022-12-16T08:50:17;24.77;;;13.82;;
44850;SDS011;30583;48.714;9.386;2022-12-16T08:53:01;35.00;;;18.15;;
44850;SDS011;30583;48.714;9.386;2022-12-16T08:55:46;22.65;;;13.48;;
44850;SDS011;30583;48.714;9.386;2022-12-16T08:58:30;25.25;;;15.30;;
44850;SDS011;30583;48.714;9.386;2022-12-16T09:01:14;25.80;;;13.70;;
44850;SDS011;30583;48.714;9.386;2022-12-16T09:03:58;25.42;;;14.55;;
44850;SDS011;30583;48.714;9.386;2022-12-16T09:06:42;31.00;;;16.48;;
44850;SDS011;30583;48.714;9.386;2022-12-16T09:09:26;26.63;;;14.57;;
44850;SDS011;30583;48.714;9.386;2022-12-16T09:12:10;27.48;;;13.80;;
44850;SDS011;30583;48.714;9.386;2022-12-16T09:14:54;26.20;;;13.27;;
44850;SDS011;30583;48.714;9.386;2022-12-16T09:17:39;24.27;;;14.30;;
44850;SDS011;30583;48.714;9.386;2022-12-16T09:20:23;21.63;;;12.93;;
44850;SDS011;30583;48.714;9.386;2022-12-16T09:23:07;27.15;;;14.40;;
44850;SDS011;30583;48.714;9.386;2022-12-16T09:25:51;25.42;;;13.57;;
44850;SDS011;30583;48.714;9.386;2022-12-16T09:28:35;22.63;;;13.52;;
44850;SDS011;30583;48.714;9.386;2022-12-16T09:31:19;23.45;;;12.35;;
44850;SDS011;30583;48.714;9.386;2022-12-16T09:34:03;23.45;;;13.30;;
44850;SDS011;30583;48.714;9.386;2022-12-16T09:36:48;20.90;;;12.07;;
44850;SDS011;30583;48.714;9.386;2022-12-16T09:39:32;19.70;;;11.82;;
44850;SDS011;30583;48.714;9.386;2022-12-16T09:51:16;20.15;;;11.05;;
44850;SDS011;30583;48.714;9.386;2022-12-16T09:54:00;20.20;;;11.98;;
44850;SDS011;30583;48.714;9.386;2022-12-16T09:56:46;21.02;;;11.85;;
44850;SDS011;30583;48.714;9.386;2022-12-16T09:59:36;19.42;;;11.07;;
44850;SDS011;30583;48.714;9.386;2022-12-16T10:02:24;21.02;;;12.63;;
44850;SDS011;30583;48.714;9.386;2022-12-16T10:11:08;19.55;;;11.35;;
44850;SDS011;30583;48.714;9.386;2022-12-16T10:14:01;20.15;;;11.77;;
44850;SDS011;30583;48.714;9.386;2022-12-16T10:19:43;19.38;;;11.93;;
44850;SDS011;30583;48.714;9.386;2022-12-16T10:25:39;20.35;;;10.93;;
44850;SDS011;30583;48.714;9.386;2022-12-16T10:28:38;24.20;;;11.70;;
44850;SDS011;30583;48.714;9.386;2022-12-16T10:31:30;18.67;;;11.68;;
44850;SDS011;30583;48.714;9.386;2022-12-16T10:34:27;18.42;;;11.15;;
44850;SDS011;30583;48.714;9.386;2022-12-16T10:37:13;21.92;;;12.18;;
44850;SDS011;30583;48.714;9.386;2022-12-16T10:40:03;20.58;;;12.13;;
44850;SDS011;30583;48.714;9.386;2022-12-16T10:42:54;23.45;;;11.57;;
44850;SDS011;30583;48.714;9.386;2022-12-16T10:45:49;19.83;;;11.60;;
44850;SDS011;30583;48.714;9.386;2022-12-16T10:48:35;23.00;;;12.65;;
44850;SDS011;30583;48.714;9.386;2022-12-16T10:51:21;20.92;;;11.48;;
44850;SDS011;30583;48.714;9.386;2022-12-16T10:54:19;18.85;;;11.10;;
44850;SDS011;30583;48.714;9.386;2022-12-16T10:57:23;20.73;;;11.20;;
44850;SDS011;30583;48.714;9.386;2022-12-16T11:03:26;20.48;;;10.50;;
44850;SDS011;30583;48.714;9.386;2022-12-16T11:06:15;21.42;;;11.25;;
44850;SDS011;30583;48.714;9.386;2022-12-16T11:12:30;20.13;;;11.38;;
44850;SDS011;30583;48.714;9.386;2022-12-16T11:18:17;20.08;;;11.50;;
44850;SDS011;30583;48.714;9.386;2022-12-16T11:21:11;20.45;;;10.90;;
44850;SDS011;30583;48.714;9.386;2022-12-16T11:26:54;21.30;;;11.23;;
44850;SDS011;30583;48.714;9.386;2022-12-16T11:30:00;23.02;;;11.82;;
44850;SDS011;30583;48.714;9.386;2022-12-16T11:32:47;23.60;;;11.13;;
44850;SDS011;30583;48.714;9.386;2022-12-16T11:35:38;20.70;;;10.70;;
44850;SDS011;30583;48.714;9.386;2022-12-16T11:41:14;20.85;;;11.80;;
44850;SDS011;30583;48.714;9.386;2022-12-16T11:44:07;21.50;;;11.40;;
44850;SDS011;30583;48.714;9.386;2022-12-16T11:46:57;19.15;;;11.02;;
44850;SDS011;30583;48.714;9.386;2022-12-16T11:49:42;18.50;;;9.93;;
44850;SDS011;30583;48.714;9.386;2022-12-16T11:52:26;18.20;;;10.35;;
44850;SDS011;30583;48.714;9.386;2022-12-16T11:55:13;21.75;;;12.13;;
44850;SDS011;30583;48.714;9.386;2022-12-16T11:58:28;23.27;;;11.55;;
44850;SDS011;30583;48.714;9.386;2022-12-16T12:01:16;22.45;;;11.20;;
44850;SDS011;30583;48.714;9.386;2022-12-16T12:04:05;22.75;;;13.23;;
44850;SDS011;30583;48.714;9.386;2022-12-16T12:06:54;24.02;;;12.55;;
44850;SDS011;30583;48.714;9.386;2022-12-16T12:09:56;17.42;;;10.93;;
44850;SDS011;30583;48.714;9.386;2022-12-16T12:13:10;19.60;;;11.32;;
44850;SDS011;30583;48.714;9.386;2022-12-16T12:16:15;20.20;;;10.48;;
44850;SDS011;30583;48.714;9.386;2022-12-16T12:19:22;21.55;;;13.27;;
44850;SDS011;30583;48.714;9.386;2022-12-16T12:22:30;19.35;;;11.60;;
44850;SDS011;30583;48.714;9.386;2022-12-16T12:37:16;16.95;;;10.82;;
44850;SDS011;30583;48.714;9.386;2022-12-16T12:46:22;17.70;;;9.77;;
44850;SDS011;30583;48.714;9.386;2022-12-16T12:50:20;18.08;;;10.00;;
44850;SDS011;30583;48.714;9.386;2022-12-16T12:59:00;20.25;;;10.25;;
44850;SDS011;30583;48.714;9.386;2022-12-16T13:01:51;17.02;;;10.82;;
44850;SDS011;30583;48.714;9.386;2022-12-16T13:04:36;20.00;;;12.25;;
44850;SDS011;30583;48.714;9.386;2022-12-16T13:07:22;24.48;;;13.95;;
44850;SDS011;30583;48.714;9.386;2022-12-16T13:10:29;16.65;;;10.77;;
44850;SDS011;30583;48.714;9.386;2022-12-16T13:16:00;22.88;;;12.93;;
44850;SDS011;30583;48.714;9.386;2022-12-16T13:18:46;21.88;;;13.65;;
44850;SDS011;30583;48.714;9.386;2022-12-16T13:31:03;19.15;;;11.27;;
44850;SDS011;30583;48.714;9.386;2022-12-16T13:33:51;39.72;;;20.38;;
44850;SDS011;30583;48.714;9.386;2022-12-16T13:36:37;23.35;;;13.63;;
44850;SDS011;30583;48.714;9.386;2022-12-16T13:39:23;19.95;;;11.90;;
44850;SDS011;30583;48.714;9.386;2022-12-16T13:45:38;20.48;;;11.55;;
44850;SDS011;30583;48.714;9.386;2022-12-16T13:54:33;19.45;;;11.02;;
44850;SDS011;30583;48.714;9.386;2022-12-16T13:57:22;17.33;;;10.77;;
44850;SDS011;30583;48.714;9.386;2022-12-16T14:00:26;18.30;;;11.13;;
44850;SDS011;30583;48.714;9.386;2022-12-16T14:03:17;22.67;;;12.77;;
44850;SDS011;30583;48.714;9.386;2022-12-16T14:06:07;18.63;;;10.73;;
44850;SDS011;30583;48.714;9.386;2022-12-16T14:08:59;19.80;;;11.18;;
44850;SDS011;30583;48.714;9.386;2022-12-16T14:14:55;20.95;;;11.90;;
44850;SDS011;30583;48.714;9.386;2022-12-16T14:17:49;19.90;;;11.40;;
44850;SDS011;30583;48.714;9.386;2022-12-16T14:20:47;22.50;;;12.57;;
44850;SDS011;30583;48.714;9.386;2022-12-16T14:23:40;20.10;;;10.90;;
44850;SDS011;30583;48.714;9.386;2022-12-16T14:26:30;18.90;;;11.30;;
44850;SDS011;30583;48.714;9.386;2022-12-16T14:29:28;20.27;;;12.20;;
44850;SDS011;30583;48.714;9.386;2022-12-16T14:32:31;22.98;;;12.68;;
44850;SDS011;30583;48.714;9.386;2022-12-16T14:35:24;25.38;;;13.18;;
44850;SDS011;30583;48.714;9.386;2022-12-16T14:38:20;22.88;;;13.52;;
44850;SDS011;30583;48.714;9.386;2022-12-16T14:41:10;23.63;;;13.95;;
44850;SDS011;30583;48.714;9.386;2022-12-16T14:43:56;20.17;;;12.30;;
44850;SDS011;30583;48.714;9.386;2022-12-16T14:46:40;25.33;;;14.55;;
44850;SDS011;30583;48.714;9.386;2022-12-16T14:49:25;22.75;;;13.35;;
44850;SDS011;30583;48.714;9.386;2022-12-16T14:52:21;21.73;;;13.20;;
44850;SDS011;30583;48.714;9.386;2022-12-16T14:55:15;18.92;;;11.32;;
44850;SDS011;30583;48.714;9.386;2022-12-16T14:58:08;20.40;;;11.35;;
44850;SDS011;30583;48.714;9.386;2022-12-16T15:00:53;18.40;;;11.77;;
44850;SDS011;30583;48.714;9.386;2022-12-16T15:03:46;20.33;;;11.15;;
44850;SDS011;30583;48.714;9.386;2022-12-16T15:06:35;20.48;;;11.00;;
44850;SDS011;30583;48.714;9.386;2022-12-16T15:09:33;17.27;;;11.30;;
44850;SDS011;30583;48.714;9.386;2022-12-16T15:12:22;19.35;;;10.73;;
44850;SDS011;30583;48.714;9.386;2022-12-16T15:15:15;18.83;;;10.60;;
44850;SDS011;30583;48.714;9.386;2022-12-16T15:18:17;20.38;;;11.48;;
44850;SDS011;30583;48.714;9.386;2022-12-16T15:21:05;18.27;;;12.07;;
44850;SDS011;30583;48.714;9.386;2022-12-16T15:23:50;23.52;;;12.88;;
44850;SDS011;30583;48.714;9.386;2022-12-16T15:26:35;21.05;;;12.77;;
44850;SDS011;30583;48.714;9.386;2022-12-16T15:32:28;22.63;;;13.15;;
44850;SDS011;30583;48.714;9.386;2022-12-16T15:40:59;24.02;;;13.38;;
44850;SDS011;30583;48.714;9.386;2022-12-16T15:43:45;18.33;;;11.18;;
44850;SDS011;30583;48.714;9.386;2022-12-16T15:46:30;22.02;;;12.27;;
44850;SDS011;30583;48.714;9.386;2022-12-16T15:49:16;23.38;;;14.50;;
44850;SDS011;30583;48.714;9.386;2022-12-16T15:55:23;23.45;;;12.82;;
44850;SDS011;30583;48.714;9.386;2022-12-16T15:58:27;31.40;;;14.45;;
44850;SDS011;30583;48.714;9.386;2022-12-16T16:01:20;31.42;;;13.85;;
44850;SDS011;30583;48.714;9.386;2022-12-16T16:07:20;33.90;;;13.30;;
44850;SDS011;30583;48.714;9.386;2022-12-16T16:12:59;30.98;;;13.07;;
44850;SDS011;30583;48.714;9.386;2022-12-16T16:18:28;23.17;;;12.63;;
44850;SDS011;30583;48.714;9.386;2022-12-16T16:21:12;22.17;;;13.07;;
44850;SDS011;30583;48.714;9.386;2022-12-16T16:23:56;19.33;;;12.00;;
44850;SDS011;30583;48.714;9.386;2022-12-16T16:26:40;12.23;;;6.85;;
44850;SDS011;30583;48.714;9.386;2022-12-16T16:29:24;20.92;;;13.07;;
44850;SDS011;30583;48.714;9.386;2022-12-16T16:32:09;25.75;;;15.57;;
44850;SDS011;30583;48.714;9.386;2022-12-16T16:34:53;20.23;;;14.05;;
44850;SDS011;30583;48.714;9.386;2022-12-16T16:37:37;21.52;;;13.80;;
44850;SDS011;30583;48.714;9.386;2022-12-16T16:40:27;23.13;;;14.80;;
44850;SDS011;30583;48.714;9.386;2022-12-16T16:43:15;25.65;;;16.13;;
44850;SDS011;30583;48.714;9.386;2022-12-16T16:48:44;23.75;;;14.65;;
44850;SDS011;30583;48.714;9.386;2022-12-16T16:51:28;28.13;;;17.10;;
44850;SDS011;30583;48.714;9.386;2022-12-16T16:54:12;30.75;;;19.35;;
44850;SDS011;30583;48.714;9.386;2022-12-16T16:56:58;28.13;;;16.48;;
44850;SDS011;30583;48.714;9.386;2022-12-16T16:59:43;20.92;;;13.98;;
44850;SDS011;30583;48.714;9.386;2022-12-16T17:05:12;24.52;;;12.32;;
44850;SDS011;30583;48.714;9.386;2022-12-16T17:07:56;19.00;;;12.40;;
44850;SDS011;30583;48.714;9.386;2022-12-16T17:10:41;18.63;;;11.75;;
44850;SDS011;30583;48.714;9.386;2022-12-16T17:13:25;17.13;;;11.27;;
44850;SDS011;30583;48.714;9.386;2022-12-16T17:16:10;17.63;;;10.85;;
44850;SDS011;30583;48.714;9.386;2022-12-16T17:18:56;21.75;;;11.77;;
44850;SDS011;30583;48.714;9.386;2022-12-16T17:21:40;20.33;;;12.57;;
44850;SDS011;30583;48.714;9.386;2022-12-16T17:24:25;17.27;;;10.73;;
44850;SDS011;30583;48.714;9.386;2022-12-16T17:27:27;20.67;;;11.68;;
44850;SDS011;30583;48.714;9.386;2022-12-16T17:32:57;19.38;;;11.70;;
44850;SDS011;30583;48.714;9.386;2022-12-16T17:35:41;18.08;;;10.68;;
44850;SDS011;30583;48.714;9.386;2022-12-16T17:38:25;19.25;;;11.02;;
44850;SDS011;30583;48.714;9.386;2022-12-16T17:41:10;20.23;;;11.15;;
44850;SDS011;30583;48.714;9.386;2022-12-16T17:43:54;16.60;;;10.88;;
44850;SDS011;30583;48.714;9.386;2022-12-16T17:46:38;22.85;;;14.35;;
44850;SDS011;30583;48.714;9.386;2022-12-16T17:49:22;21.73;;;14.30;;
44850;SDS011;30583;48.714;9.386;2022-12-16T17:52:06;21.20;;;13.15;;
44850;SDS011;30583;48.714;9.386;2022-12-16T17:54:50;19.73;;;11.93;;
44850;SDS011;30583;48.714;9.386;2022-12-16T17:57:34;22.27;;;12.82;;
44850;SDS011;30583;48.714;9.386;2022-12-16T18:00:18;22.83;;;14.20;;
44850;SDS011;30583;48.714;9.386;2022-12-16T18:03:02;20.88;;;12.38;;
44850;SDS011;30583;48.714;9.386;2022-12-16T18:05:46;22.48;;;12.82;;
44850;SDS011;30583;48.714;9.386;2022-12-16T18:08:31;21.65;;;13.20;;
44850;SDS011;30583;48.714;9.386;2022-12-16T18:11:15;21.08;;;12.05;;
44850;SDS011;30583;48.714;9.386;2022-12-16T18:13:59;47.97;;;20.02;;
44850;SDS011;30583;48.714;9.386;2022-12-16T18:16:43;27.45;;;13.85;;
44850;SDS011;30583;48.714;9.386;2022-12-16T18:19:27;25.17;;;14.90;;